Cristian Coman

Scout - Universitatea Craiova
22 Feb 2028
Dienstag
Verarbeitung

Persönlichkeit

Anpassungsfähigkeit (6) Ehrgeiz (13) Kontroverse (19) Loyalität (15) Druck (18) Professionalität (5) Fairness (6) Temperament (1)

Profil

Trainerstil Demokratisch
Lizenz Nationale A
Entschlossenheit 9
Menschenführung 8
Motivation 8
Disziplin 12
Arbeitszufriedenheit
100%
Ermüdung
0%
Rolle Scout
Gehalt 74.3K p/W
Vertrag 14.03.2029

Leistung

Verhalten Gut
Trainingseffektivität
46%
Spielerentwicklung
25%
Verletzungsprävention
20%
Taktische Umsetzung
35%

Letzte Ereignisse

Nahm an einer Scouting-Besprechung teil 7T her
Nahm an einer Scouting-Besprechung teil 7T her
Nahm an einer Scouting-Besprechung teil 14T her
Nahm an einer Scouting-Besprechung teil 14T her
Nahm an einer Scouting-Besprechung teil 21T her
Nahm an einer Scouting-Besprechung teil 21T her
Nahm an einer Scouting-Besprechung teil 28T her
Legte dem Vorstand ein Dossier vor 28T her

Aktuell beobachtet

111
Spieler Verein Status Fähigkeit Vertrauen Beobachtet Zuletzt beobachtet Letzte Stimme
Karim Azamoum Viitorul Verloren 113 / 104 72% 1 17.01.2028 Befürworten
Aarón Molinas Defensa y Justicia Aktiv 133 / 121 40% 1 06.12.2027 -
Griffin Yow New England Revolution Aktiv 123 / 135 40% 4 05.12.2027 -
Tadeo Allende Inter Miami CF Aktiv 135 / 122 40% 3 05.12.2027 -
Alberto Soro Dinamo Bucharest Verloren 118 / 125 40% 1 05.12.2027 Mehr Infos nötig
Samuel Gidi FC Cincinnati Aktiv 119 / 131 40% 2 02.12.2027 -
Breel Embolo Atlanta United FC Aktiv 148 / 136 40% 1 02.12.2027 Mehr Infos nötig
Bénie Traoré New York City Aktiv 130 / 125 40% 5 01.12.2027 -
Pavel Bucha FC Cincinnati Aktiv 134 / 130 40% 2 01.12.2027 -
Facundo Altamira Godoy Cruz Aktiv 125 / 128 40% 1 01.12.2027 -
Antonio Galeano Remo Stars Aktiv 122 / 125 40% 2 29.11.2027 -
Morgan Guilavogui Real Salt Lake Aktiv 128 / 124 40% 1 29.11.2027 -
Adrián Sánchez Belgrano Aktiv 130 / 121 40% 1 29.11.2027 -
Elias Achouri San Diego Football Club Aktiv 130 / 137 40% 2 28.11.2027 -
Luca Langoni Colorado Rapids Aktiv 135 / 137 40% 2 28.11.2027 -
Alexis Cuello San Lorenzo Aktiv 127 / 122 40% 1 28.11.2027 -
Telasco Segovia Inter Miami CF Aktiv 139 / 139 40% 2 27.11.2027 -
Franco Zapiola Platense Aktiv 124 / 126 40% 1 27.11.2027 -
Bryan Ramírez FC Cincinnati Aktiv 133 / 123 40% 3 26.11.2027 -
Alhassan Yusuf New England Revolution Aktiv 134 / 122 40% 1 26.11.2027 -
Lucas Sanabria LA Galaxy Aktiv 125 / 139 40% 1 26.11.2027 -
Djordje Mihailović Toronto FC Aktiv 134 / 139 40% 4 25.11.2027 -
Pedro de la Vega FC Dallas Aktiv 136 / 134 40% 3 25.11.2027 -
Marco Pašalić Orlando City Aktiv 134 / 136 40% 3 24.11.2027 -
Simen Bolkan Nordli Rosenborg Aktiv 121 / 128 40% 1 23.11.2027 -
Brennan Johnson Stoke City Aktiv 153 / 145 40% 1 21.11.2027 -
Matías Fernández Independiente Rivadavia Aktiv 112 / 125 40% 1 21.11.2027 -
Luciano Cosentino Wanderers Aktiv 131 / 120 40% 2 20.11.2027 -
Emmanuel Sabbi Vancouver Whitecaps Aktiv 126 / 113 40% 2 20.11.2027 -
Diego García Defensor Sporting Aktiv 116 / 123 40% 1 17.11.2027 -
Francisco González Metilli Belgrano Verloren 118 / 118 40% 1 17.11.2027 -
Allan Saint-Maximin Charlotte Football Club Aktiv 145 / 141 40% 4 15.11.2027 -
Luciano Boggio Nacional Aktiv 116 / 127 40% 2 13.11.2027 -
David Da Costa Portland Timbers Aktiv 136 / 126 40% 2 13.11.2027 -
Duncan McGuire Houston Dynamo Aktiv 129 / 128 40% 1 13.11.2027 -
Brooke Norton-Cuffy Inter Miami CF Aktiv 132 / 141 40% 1 12.11.2027 -
Duvan Rangel La Equidad Aktiv 126 / 130 40% 3 11.11.2027 -
Iván Angulo Orlando City Aktiv 142 / 134 40% 2 10.11.2027 -
Felipe Peña Biafore Lanús Aktiv 119 / 133 40% 1 10.11.2027 -
Manuel Duarte Barracas Central Aktiv 126 / 125 40% 1 10.11.2027 -
Mauricio Amaro Atlanta United FC Aktiv 119 / 121 40% 2 05.11.2027 -
Gabriel Pirani San Diego Football Club Aktiv 140 / 135 40% 3 05.11.2027 -
Nəriman Axundzadə Columbus Crew Aktiv 121 / 134 40% 2 29.10.2027 -
Marcelo Saracchi Houston Dynamo Aktiv 116 / 125 40% 1 28.10.2027 -
Brais Méndez Columbus Crew Aktiv 140 / 156 40% 3 26.10.2027 -
Maren Haile-Selassie Chicago Fire Aktiv 110 / 119 40% 1 26.10.2027 -
Emil Ceïde Rosenborg Aktiv 115 / 126 40% 1 23.10.2027 -
Sebastián Medina Tigre Aktiv 110 / 112 40% 1 21.10.2027 -
Gastón Togni Defensa y Justicia Aktiv 133 / 129 40% 1 21.10.2027 -
Martín Ojeda Orlando City Aktiv 130 / 143 40% 2 19.10.2027 -
Anders Dreyer San Diego Football Club Aktiv 120 / 137 40% 1 18.10.2027 -
Shapi Suleymanov Sporting Kansas City Aktiv 119 / 109 40% 1 17.10.2027 -
Lucas Souto Defensa y Justicia Aktiv 137 / 121 40% 1 11.10.2027 -
Joaquín Gho Argentinos Juniors Aktiv 122 / 120 40% 1 09.10.2027 -
André Franco Chicago Fire Aktiv 136 / 128 40% 1 08.10.2027 -
Gonzalo Abrego Godoy Cruz Aktiv 120 / 114 40% 1 05.10.2027 -
Ralph Orquin Seattle Sounders Aktiv 123 / 128 40% 1 05.10.2027 -
Alejo Cruz Juventud Aktiv 112 / 116 40% 1 05.10.2027 -
Armindo Sieb Los Angeles Football Club Aktiv 136 / 116 40% 1 04.10.2027 -
Diego Luna Real Salt Lake Aktiv 135 / 132 40% 1 04.10.2027 -
Christos Mouzakitis Hull City Aktiv 133 / 145 40% 4 03.08.2027 -
Ethan Pye Stockport County Aktiv 123 / 118 40% 1 03.08.2027 -
Welington Southampton Aktiv 131 / 128 40% 1 03.08.2027 -
Evgeny Staver Rubin Aktiv 112 / 114 40% 1 14.06.2027 -
Vladan Kovačević Norwich City Aktiv 115 / 119 40% 1 14.06.2027 -
Leo Castledine Middlesbrough Aktiv 127 / 133 40% 1 31.05.2027 -
Ernie Weaver AFC Wimbledon Aktiv 109 / 112 40% 3 26.05.2027 -
Darryl Bakola Padova Aktiv 109 / 123 40% 2 26.05.2027 -
Dylan Lawlor Cardiff City Aktiv 120 / 116 40% 3 25.05.2027 -
Christ Inao Oulaï Fiorentina Aktiv 141 / 137 40% 4 25.05.2027 -
Felix Afful Liberty Professionals Aktiv 94 / 94 40% 2 25.05.2027 -
Riley Owen Trento Aktiv 94 / 113 40% 5 24.05.2027 -
Juan Giménez Celta Aktiv 114 / 123 40% 2 24.05.2027 -
Martim Cunha Porto Aktiv 94 / 106 40% 6 23.05.2027 -
Eduardo Felicíssimo Sporting CP Aktiv 107 / 115 40% 2 23.05.2027 -
Gonçalo Oliveira Benfica Aktiv 117 / 111 40% 3 23.05.2027 -
Joel McGregor Swindon Town Aktiv 87 / 94 40% 4 21.05.2027 -
Matías Gómez Granada Aktiv 113 / 119 40% 1 21.05.2027 -
Sascha Britschgi Padova Aktiv 114 / 127 40% 2 20.05.2027 -
Rivaldo Grobler Free State Stars Aktiv 102 / 114 40% 1 20.05.2027 -
Edwin Asamoah Berekum Chelsea Aktiv 91 / 87 40% 2 16.05.2027 -
Adam Bakoune Ospitaletto Aktiv 104 / 107 40% 2 13.05.2027 -
Samuel Lucero Defensa y Justicia Aktiv 106 / 123 40% 2 11.05.2027 -
Tobias Slotsager Casertana Aktiv 104 / 120 40% 1 11.05.2027 -
Dmitry Pestryakov Dinamo Moscow Aktiv 120 / 116 40% 1 08.05.2027 -
Percy Jali Free State Stars Aktiv 84 / 104 40% 1 08.05.2027 -
Caleb Yirenkyi Coventry City Aktiv 134 / 138 40% 5 07.05.2027 -
Keagan Tau Ajax Cape Town Aktiv 101 / 98 40% 3 04.05.2027 -
Taras Mykhavko Dynamo Kyiv Aktiv 121 / 125 40% 2 03.05.2027 -
Maxim Radchenko Rostov Aktiv 86 / 87 40% 1 03.05.2027 -
Ezra Mayers West Ham United Aktiv 114 / 119 40% 1 02.05.2027 -
Zaïd BafdilI Sporting CP Aktiv 95 / 105 40% 1 27.04.2027 -
Denys Smetana Nyva Aktiv 95 / 103 40% 2 26.04.2027 -
Leandro Martins Benfica Aktiv 90 / 101 40% 3 24.04.2027 -
Kazunari Kita Real Sociedad Aktiv 97 / 99 40% 3 22.04.2027 -
Hlompho Lorch Ajax Cape Town Aktiv 105 / 106 40% 2 22.04.2027 -
Keagan Phiri Platinum Stars Aktiv 103 / 96 40% 1 18.04.2027 -
Vasilije Novičić IMT Aktiv 90 / 108 40% 1 18.04.2027 -
Mpho Khethang AS Police Aktiv 82 / 96 40% 2 14.04.2027 -
Jofre Torrents Ajax Aktiv 118 / 128 40% 3 13.04.2027 -
Daniel Kelly Oxford United Aktiv 117 / 119 40% 1 13.04.2027 -
Daniel Vernattus Metalist Aktiv 87 / 96 40% 2 12.04.2027 -
Joseph Nuhu Hasaacas Aktiv 75 / 91 40% 1 06.04.2027 -
Cathal Heffernan Harrogate Town Aktiv 80 / 92 40% 1 02.04.2027 -
Nikita Stoinov Dinamo Bucharest Aktiv 129 / 123 40% 1 02.04.2027 -
David Atiemo Liberty Professionals Aktiv 70 / 79 40% 1 29.03.2027 -
James Dornelly Peterborough United Aktiv 96 / 113 40% 2 22.03.2027 -
Finley McAllister Grimsby Town Aktiv 90 / 92 40% 1 22.03.2027 -
Samuele di Benedetto Bari Aktiv 116 / 122 40% 1 21.03.2027 -
Cemran Dansin Orlando Pirates Aktiv 102 / 122 40% 1 20.03.2027 -
Ronwen Phiri Platinum Stars Aktiv 101 / 107 40% 1 18.03.2027 -